createdAt,value
2023-01-30T04:46:58.219Z,14.83
2023-01-30T04:49:33.670Z,13.90
2023-01-30T04:52:12.077Z,14.50
2023-01-30T04:57:45.150Z,14.67
2023-01-30T05:00:28.189Z,14.20
2023-01-30T05:03:12.045Z,14.33
2023-01-30T05:05:45.821Z,14.60
2023-01-30T05:08:39.401Z,14.73
2023-01-30T05:11:18.142Z,14.00
2023-01-30T05:14:21.318Z,14.10
2023-01-30T05:16:58.238Z,14.90
2023-01-30T05:19:44.075Z,14.57
2023-01-30T05:22:29.390Z,13.93
2023-01-30T05:25:03.212Z,14.70
2023-01-30T05:31:07.558Z,15.53
2023-01-30T05:33:43.434Z,14.70
2023-01-30T05:36:29.734Z,14.40
2023-01-30T05:39:14.710Z,15.93
2023-01-30T05:41:43.139Z,13.83
2023-01-30T05:44:22.631Z,13.50
2023-01-30T05:47:05.723Z,13.50
2023-01-30T05:49:44.502Z,15.27
2023-01-30T05:52:28.908Z,13.10
2023-01-30T05:56:23.738Z,14.43
2023-01-30T05:58:13.991Z,14.60
2023-01-30T06:01:24.038Z,15.40
2023-01-30T06:03:52.945Z,13.70
2023-01-30T06:06:30.781Z,14.07
2023-01-30T06:14:31.222Z,14.10
2023-01-30T06:20:25.962Z,14.33
2023-01-30T06:23:12.529Z,14.30
2023-01-30T06:26:28.239Z,14.90
2023-01-30T06:32:22.613Z,14.57
2023-01-30T06:35:38.632Z,14.17
2023-01-30T06:38:41.827Z,14.03
2023-01-30T06:41:36.696Z,15.23
2023-01-30T06:44:27.214Z,14.60
2023-01-30T06:47:09.189Z,14.93
2023-01-30T06:49:57.218Z,13.33
2023-01-30T06:52:55.026Z,15.77
2023-01-30T06:55:43.691Z,14.30
2023-01-30T06:58:14.622Z,14.10
2023-01-30T07:00:46.748Z,14.50
2023-01-30T07:03:21.394Z,16.43
2023-01-30T07:05:52.551Z,18.20
2023-01-30T07:08:27.037Z,14.50
2023-01-30T07:10:56.126Z,15.50
2023-01-30T07:13:25.251Z,14.87
2023-01-30T07:15:56.523Z,14.40
2023-01-30T07:18:32.951Z,15.33
2023-01-30T07:21:01.724Z,18.30
2023-01-30T07:23:30.506Z,16.10
2023-01-30T07:26:02.232Z,15.10
2023-01-30T07:28:32.726Z,15.17
2023-01-30T07:31:14.766Z,14.50
2023-01-30T07:33:52.499Z,15.33
2023-01-30T07:36:21.384Z,14.83
2023-01-30T07:38:50.636Z,15.00
2023-01-30T07:41:22.013Z,14.00
2023-01-30T07:43:56.424Z,14.40
2023-01-30T07:46:27.805Z,14.73
2023-01-30T07:49:16.890Z,14.47
2023-01-30T07:51:48.830Z,15.00
2023-01-30T07:54:18.363Z,15.57
2023-01-30T07:56:54.597Z,15.40
2023-01-30T07:59:25.991Z,15.13
2023-01-30T08:01:58.861Z,14.90
2023-01-30T08:04:30.188Z,14.87
2023-01-30T08:07:21.536Z,14.70
2023-01-30T08:09:58.129Z,15.00
2023-01-30T08:12:29.482Z,14.77
2023-01-30T08:17:57.909Z,15.63
2023-01-30T08:20:33.407Z,16.20
2023-01-30T08:23:09.404Z,16.93
2023-01-30T08:25:43.647Z,16.40
2023-01-30T08:28:16.880Z,16.93
2023-01-30T08:30:48.254Z,16.80
2023-01-30T08:33:20.368Z,17.60
2023-01-30T08:39:08.753Z,15.47
2023-01-30T08:41:39.054Z,16.10
2023-01-30T08:44:10.422Z,16.80
2023-01-30T08:46:41.958Z,16.50
2023-01-30T08:49:14.000Z,15.80
2023-01-30T08:51:46.116Z,15.80
2023-01-30T08:54:14.598Z,14.10
2023-01-30T08:56:46.508Z,15.23
2023-01-30T08:59:25.277Z,15.50
2023-01-30T09:01:57.281Z,15.70
2023-01-30T09:04:33.047Z,16.47
2023-01-30T09:07:10.876Z,16.00
2023-01-30T09:09:48.818Z,16.20
2023-01-30T09:12:31.272Z,15.83
2023-01-30T09:15:13.850Z,15.33
2023-01-30T09:17:55.169Z,15.40
2023-01-30T09:20:48.544Z,15.30
2023-01-30T09:23:19.232Z,16.40
2023-01-30T09:25:56.081Z,15.47
2023-01-30T09:28:26.368Z,16.93
2023-01-30T09:31:05.179Z,16.30
2023-01-30T09:33:46.777Z,25.87
2023-01-30T09:36:15.608Z,16.10
2023-01-30T09:38:46.686Z,16.00
2023-01-30T09:41:40.493Z,16.50
2023-01-30T09:44:45.729Z,17.57
2023-01-30T09:47:21.448Z,17.63
2023-01-30T09:50:09.421Z,16.83
2023-01-30T09:52:56.270Z,18.20
2023-01-30T09:55:37.267Z,18.20
2023-01-30T09:58:21.672Z,19.50
2023-01-30T10:01:09.098Z,18.40
2023-01-30T10:03:49.592Z,19.50
2023-01-30T10:06:38.364Z,18.90
2023-01-30T10:09:14.737Z,18.90
2023-01-30T10:12:08.574Z,19.23
2023-01-30T10:15:02.380Z,19.07
2023-01-30T10:17:56.282Z,18.57
2023-01-30T10:24:27.712Z,19.30
2023-01-30T10:27:04.829Z,18.27
2023-01-30T10:29:43.126Z,18.50
2023-01-30T10:32:20.525Z,18.97
2023-01-30T10:34:58.911Z,18.60
2023-01-30T10:37:33.607Z,18.60
2023-01-30T10:40:08.972Z,18.43
2023-01-30T10:42:49.109Z,18.80
2023-01-30T10:45:23.674Z,18.53
2023-01-30T10:48:08.774Z,18.10
2023-01-30T10:50:49.963Z,16.90
2023-01-30T10:53:24.859Z,18.03
2023-01-30T10:56:02.263Z,18.30
2023-01-30T10:58:37.947Z,17.60
2023-01-30T11:01:13.520Z,17.90
2023-01-30T11:03:48.883Z,17.93
2023-01-30T11:06:24.999Z,18.03
2023-01-30T11:08:57.425Z,17.83
2023-01-30T11:11:36.873Z,17.97
2023-01-30T11:14:07.132Z,17.80
2023-01-30T11:16:45.009Z,18.20
2023-01-30T11:19:36.912Z,16.93
2023-01-30T11:22:09.121Z,17.20
2023-01-30T11:24:42.656Z,15.83
2023-01-30T11:27:25.625Z,15.90
2023-01-30T11:30:14.934Z,16.47
2023-01-30T11:32:50.191Z,17.07
2023-01-30T11:35:28.871Z,16.83
2023-01-30T11:38:13.641Z,16.67
2023-01-30T11:40:47.093Z,16.43
2023-01-30T11:43:37.944Z,17.10
2023-01-30T11:46:42.895Z,16.60
2023-01-30T11:50:02.208Z,17.47
2023-01-30T11:53:22.207Z,17.80
2023-01-30T11:56:06.353Z,16.57
2023-01-30T11:59:01.207Z,17.27
2023-01-30T12:01:49.317Z,17.20
2023-01-30T12:04:34.075Z,16.57
2023-01-30T12:21:31.749Z,16.50
2023-01-30T12:24:45.482Z,18.17
2023-01-30T12:27:47.264Z,17.97
2023-01-30T12:34:03.079Z,17.30
2023-01-30T12:36:49.075Z,18.53
2023-01-30T12:39:53.347Z,17.43
2023-01-30T12:42:52.507Z,17.50
2023-01-30T12:45:47.174Z,17.40
2023-01-30T12:48:48.949Z,18.33
2023-01-30T12:51:54.887Z,19.03
2023-01-30T12:55:02.236Z,18.30
2023-01-30T12:58:01.782Z,16.70
2023-01-30T13:01:13.392Z,17.57
2023-01-30T13:03:55.272Z,17.23
2023-01-30T13:06:42.659Z,17.67
2023-01-30T13:09:46.738Z,17.20
2023-01-30T13:12:32.671Z,18.50
2023-01-30T13:15:09.695Z,19.00
2023-01-30T13:18:16.918Z,18.00
2023-01-30T13:21:16.276Z,17.90
2023-01-30T13:24:18.215Z,18.40
2023-01-30T13:27:11.045Z,17.93
2023-01-30T13:33:17.078Z,18.20
2023-01-30T13:35:57.409Z,19.23
2023-01-30T13:41:39.720Z,18.37
2023-01-30T13:44:27.743Z,18.10
2023-01-30T13:47:15.599Z,17.63
2023-01-30T13:50:06.791Z,18.30
2023-01-30T13:52:54.297Z,18.00
2023-01-30T13:55:51.310Z,18.37
2023-01-30T13:58:53.883Z,17.63
2023-01-30T14:02:40.001Z,18.10
2023-01-30T14:06:18.661Z,18.27
2023-01-30T14:09:05.702Z,17.53
2023-01-30T14:11:42.869Z,17.27
2023-01-30T14:14:40.827Z,17.97
2023-01-30T14:17:22.268Z,17.80
2023-01-30T14:20:02.735Z,16.20
2023-01-30T14:22:41.935Z,17.50
2023-01-30T14:25:36.678Z,17.40
2023-01-30T14:29:05.624Z,18.20
2023-01-30T14:31:57.704Z,17.80
2023-01-30T14:35:08.749Z,17.07
2023-01-30T14:38:16.133Z,17.63
2023-01-30T14:41:15.171Z,17.70
2023-01-30T14:43:53.606Z,18.13
2023-01-30T14:46:54.794Z,17.20
2023-01-30T14:49:33.731Z,17.00
2023-01-30T14:52:09.601Z,17.07
2023-01-30T14:54:51.458Z,17.13
2023-01-30T14:57:33.705Z,17.80
2023-01-30T15:00:21.227Z,18.30
2023-01-30T15:02:58.563Z,15.80
2023-01-30T15:05:32.292Z,17.03
2023-01-30T15:08:11.849Z,17.50
2023-01-30T15:11:09.915Z,16.20
2023-01-30T15:14:07.706Z,16.60
2023-01-30T15:17:09.275Z,17.83
2023-01-30T15:20:04.488Z,16.20
2023-01-30T15:22:44.436Z,16.90
2023-01-30T15:25:50.710Z,17.87
2023-01-30T15:28:34.754Z,17.30
2023-01-30T15:31:14.589Z,16.17
2023-01-30T15:33:48.016Z,16.07
2023-01-30T15:36:21.871Z,15.33
2023-01-30T15:39:04.889Z,15.73
2023-01-30T15:41:43.613Z,18.77
2023-01-30T15:44:38.595Z,18.13
2023-01-30T15:47:53.731Z,19.20
2023-01-30T15:50:22.669Z,18.20
2023-01-30T15:52:54.566Z,18.70
2023-01-30T15:55:27.109Z,20.07
2023-01-30T15:57:59.316Z,19.00
2023-01-30T16:00:30.671Z,18.77
2023-01-30T16:03:03.420Z,19.10
2023-01-30T16:05:32.524Z,20.40
2023-01-30T16:08:17.922Z,19.70
2023-01-30T16:11:03.546Z,18.23
2023-01-30T16:13:33.470Z,18.00
2023-01-30T16:16:05.037Z,17.70
2023-01-30T16:18:39.515Z,18.20
2023-01-30T16:21:11.338Z,17.37
2023-01-30T16:23:43.488Z,17.40
2023-01-30T16:26:18.349Z,17.33
2023-01-30T16:28:46.899Z,16.30
2023-01-30T16:31:16.398Z,17.33
2023-01-30T16:33:52.106Z,17.50
2023-01-30T16:36:39.616Z,16.13
2023-01-30T16:39:34.346Z,17.97
2023-01-30T16:42:05.292Z,15.60
2023-01-30T16:44:34.398Z,16.03
2023-01-30T16:47:05.533Z,15.57
2023-01-30T16:49:48.875Z,16.23
2023-01-30T16:52:27.410Z,16.37
2023-01-30T16:55:01.277Z,15.13
2023-01-30T16:57:38.600Z,16.03
2023-01-30T17:00:21.866Z,15.60
2023-01-30T17:02:53.480Z,16.10
2023-01-30T17:05:26.351Z,16.80
2023-01-30T17:07:56.830Z,15.90
2023-01-30T17:10:52.591Z,16.70
2023-01-30T17:13:46.093Z,17.47
2023-01-30T17:16:39.221Z,17.37
2023-01-30T17:19:08.549Z,17.90
2023-01-30T17:22:16.717Z,17.93
2023-01-30T17:24:45.560Z,19.43
2023-01-30T17:27:15.370Z,17.20
2023-01-30T17:29:45.637Z,17.70
2023-01-30T17:32:16.674Z,17.53
2023-01-30T17:35:01.650Z,18.00
2023-01-30T17:38:04.843Z,17.97
2023-01-30T17:40:41.734Z,18.00
2023-01-30T17:43:41.746Z,18.73
2023-01-30T17:46:16.847Z,19.43
2023-01-30T17:48:58.927Z,20.03
2023-01-30T17:51:32.753Z,21.27
2023-01-30T17:58:25.185Z,22.13
2023-01-30T18:01:19.452Z,22.37
2023-01-30T18:04:14.644Z,22.53
2023-01-30T18:06:47.435Z,20.90
2023-01-30T18:14:07.281Z,21.00
2023-01-30T18:54:00.291Z,15.43
2023-01-30T20:36:15.071Z,16.67
2023-01-30T20:39:22.936Z,16.10
2023-01-30T20:42:41.744Z,16.60
